sensor_id;sensor_type;location;lat;lon;timestamp;temperature;humidity
3334;DHT22;1679;50.392;8.008;2022-09-01T00:01:46;15.60;99.90
3334;DHT22;1679;50.392;8.008;2022-09-01T00:04:15;15.60;99.90
3334;DHT22;1679;50.392;8.008;2022-09-01T00:06:41;15.60;99.90
3334;DHT22;1679;50.392;8.008;2022-09-01T00:09:11;15.50;99.90
3334;DHT22;1679;50.392;8.008;2022-09-01T00:11:38;15.50;99.90
3334;DHT22;1679;50.392;8.008;2022-09-01T00:14:06;15.50;99.90
3334;DHT22;1679;50.392;8.008;2022-09-01T00:16:32;15.50;99.90
3334;DHT22;1679;50.392;8.008;2022-09-01T00:18:58;15.40;99.90
3334;DHT22;1679;50.392;8.008;2022-09-01T00:21:28;15.40;99.90
3334;DHT22;1679;50.392;8.008;2022-09-01T00:23:54;15.30;99.90
3334;DHT22;1679;50.392;8.008;2022-09-01T00:26:19;15.30;99.90
3334;DHT22;1679;50.392;8.008;2022-09-01T00:28:45;15.20;99.90
3334;DHT22;1679;50.392;8.008;2022-09-01T00:31:11;15.20;99.90
3334;DHT22;1679;50.392;8.008;2022-09-01T00:33:39;15.30;99.90
3334;DHT22;1679;50.392;8.008;2022-09-01T00:36:05;15.30;99.90
3334;DHT22;1679;50.392;8.008;2022-09-01T00:38:31;15.20;99.90
3334;DHT22;1679;50.392;8.008;2022-09-01T00:40:57;15.20;99.90
3334;DHT22;1679;50.392;8.008;2022-09-01T00:46:13;15.00;99.90
3334;DHT22;1679;50.392;8.008;2022-09-01T00:48:39;15.00;99.90
3334;DHT22;1679;50.392;8.008;2022-09-01T00:51:06;14.90;99.90
3334;DHT22;1679;50.392;8.008;2022-09-01T00:53:34;14.70;99.90
3334;DHT22;1679;50.392;8.008;2022-09-01T00:56:03;14.60;99.90
3334;DHT22;1679;50.392;8.008;2022-09-01T00:58:30;14.60;99.90
3334;DHT22;1679;50.392;8.008;2022-09-01T01:00:55;14.70;99.90
3334;DHT22;1679;50.392;8.008;2022-09-01T01:03:21;14.70;99.90
3334;DHT22;1679;50.392;8.008;2022-09-01T01:05:51;14.60;99.90
3334;DHT22;1679;50.392;8.008;2022-09-01T01:08:27;14.60;99.90
3334;DHT22;1679;50.392;8.008;2022-09-01T01:11:05;14.70;99.90
3334;DHT22;1679;50.392;8.008;2022-09-01T01:13:31;14.70;99.90
3334;DHT22;1679;50.392;8.008;2022-09-01T01:16:02;14.70;99.90
3334;DHT22;1679;50.392;8.008;2022-09-01T01:18:28;14.70;99.90
3334;DHT22;1679;50.392;8.008;2022-09-01T01:21:03;14.70;99.90
3334;DHT22;1679;50.392;8.008;2022-09-01T01:23:56;14.70;99.90
3334;DHT22;1679;50.392;8.008;2022-09-01T01:26:26;14.70;99.90
3334;DHT22;1679;50.392;8.008;2022-09-01T01:28:53;14.70;99.90
3334;DHT22;1679;50.392;8.008;2022-09-01T01:31:20;14.70;99.90
3334;DHT22;1679;50.392;8.008;2022-09-01T01:33:53;14.70;99.90
3334;DHT22;1679;50.392;8.008;2022-09-01T01:36:23;14.70;99.90
3334;DHT22;1679;50.392;8.008;2022-09-01T01:38:51;14.70;99.90
3334;DHT22;1679;50.392;8.008;2022-09-01T01:41:17;14.70;99.90
3334;DHT22;1679;50.392;8.008;2022-09-01T01:43:45;14.70;99.90
3334;DHT22;1679;50.392;8.008;2022-09-01T01:46:11;14.70;99.90
3334;DHT22;1679;50.392;8.008;2022-09-01T01:48:40;14.70;99.90
3334;DHT22;1679;50.392;8.008;2022-09-01T01:51:07;14.70;99.90
3334;DHT22;1679;50.392;8.008;2022-09-01T01:53:34;14.60;99.90
3334;DHT22;1679;50.392;8.008;2022-09-01T01:56:00;14.60;99.90
3334;DHT22;1679;50.392;8.008;2022-09-01T01:58:27;14.60;99.90
3334;DHT22;1679;50.392;8.008;2022-09-01T02:00:54;14.50;99.90
3334;DHT22;1679;50.392;8.008;2022-09-01T02:03:23;14.40;99.90
3334;DHT22;1679;50.392;8.008;2022-09-01T02:05:51;14.40;99.90
3334;DHT22;1679;50.392;8.008;2022-09-01T02:08:19;14.50;99.90
3334;DHT22;1679;50.392;8.008;2022-09-01T02:10:50;14.50;99.90
3334;DHT22;1679;50.392;8.008;2022-09-01T02:13:19;14.50;99.90
3334;DHT22;1679;50.392;8.008;2022-09-01T02:15:50;14.40;99.90
3334;DHT22;1679;50.392;8.008;2022-09-01T02:20:52;14.20;99.90
3334;DHT22;1679;50.392;8.008;2022-09-01T02:23:19;14.20;99.90
3334;DHT22;1679;50.392;8.008;2022-09-01T02:25:53;14.20;99.90
3334;DHT22;1679;50.392;8.008;2022-09-01T02:28:19;14.10;99.90
3334;DHT22;1679;50.392;8.008;2022-09-01T02:30:48;14.10;99.90
3334;DHT22;1679;50.392;8.008;2022-09-01T02:33:17;14.10;99.90
3334;DHT22;1679;50.392;8.008;2022-09-01T02:35:49;14.00;99.90
3334;DHT22;1679;50.392;8.008;2022-09-01T02:38:16;14.00;99.90
3334;DHT22;1679;50.392;8.008;2022-09-01T02:40:43;14.00;99.90
3334;DHT22;1679;50.392;8.008;2022-09-01T02:43:10;14.00;99.90
3334;DHT22;1679;50.392;8.008;2022-09-01T02:45:37;14.00;99.90
3334;DHT22;1679;50.392;8.008;2022-09-01T02:48:03;13.80;99.90
3334;DHT22;1679;50.392;8.008;2022-09-01T02:50:34;13.80;99.90
3334;DHT22;1679;50.392;8.008;2022-09-01T02:53:00;13.70;99.90
3334;DHT22;1679;50.392;8.008;2022-09-01T02:55:26;13.70;99.90
3334;DHT22;1679;50.392;8.008;2022-09-01T02:57:52;13.70;99.90
3334;DHT22;1679;50.392;8.008;2022-09-01T03:00:23;13.70;99.90
3334;DHT22;1679;50.392;8.008;2022-09-01T03:03:01;13.70;99.90
3334;DHT22;1679;50.392;8.008;2022-09-01T03:05:29;13.70;99.90
3334;DHT22;1679;50.392;8.008;2022-09-01T03:08:15;13.60;99.90
3334;DHT22;1679;50.392;8.008;2022-09-01T03:10:43;13.60;99.90
3334;DHT22;1679;50.392;8.008;2022-09-01T03:13:15;13.60;99.90
3334;DHT22;1679;50.392;8.008;2022-09-01T03:15:43;13.50;99.90
3334;DHT22;1679;50.392;8.008;2022-09-01T03:18:10;13.50;99.90
3334;DHT22;1679;50.392;8.008;2022-09-01T03:20:38;13.40;99.90
3334;DHT22;1679;50.392;8.008;2022-09-01T03:23:05;13.40;99.90
3334;DHT22;1679;50.392;8.008;2022-09-01T03:25:35;13.40;99.90
3334;DHT22;1679;50.392;8.008;2022-09-01T03:28:02;13.40;99.90
3334;DHT22;1679;50.392;8.008;2022-09-01T03:30:29;13.40;99.90
3334;DHT22;1679;50.392;8.008;2022-09-01T03:32:56;13.30;99.90
3334;DHT22;1679;50.392;8.008;2022-09-01T03:35:23;13.30;99.90
3334;DHT22;1679;50.392;8.008;2022-09-01T03:37:49;13.20;99.90
3334;DHT22;1679;50.392;8.008;2022-09-01T03:40:15;13.30;99.90
3334;DHT22;1679;50.392;8.008;2022-09-01T03:42:42;13.30;99.90
3334;DHT22;1679;50.392;8.008;2022-09-01T03:45:09;13.30;99.90
3334;DHT22;1679;50.392;8.008;2022-09-01T03:47:38;13.20;99.90
3334;DHT22;1679;50.392;8.008;2022-09-01T03:50:06;13.20;99.90
3334;DHT22;1679;50.392;8.008;2022-09-01T03:52:35;13.20;99.90
3334;DHT22;1679;50.392;8.008;2022-09-01T03:55:04;13.20;99.90
3334;DHT22;1679;50.392;8.008;2022-09-01T03:57:29;13.30;99.90
3334;DHT22;1679;50.392;8.008;2022-09-01T03:59:55;13.30;99.90
3334;DHT22;1679;50.392;8.008;2022-09-01T04:02:21;13.30;99.90
3334;DHT22;1679;50.392;8.008;2022-09-01T04:04:47;13.20;99.90
3334;DHT22;1679;50.392;8.008;2022-09-01T04:07:12;13.20;99.90
3334;DHT22;1679;50.392;8.008;2022-09-01T04:09:38;13.20;99.90
3334;DHT22;1679;50.392;8.008;2022-09-01T04:12:04;13.20;99.90
3334;DHT22;1679;50.392;8.008;2022-09-01T04:14:33;13.20;99.90
3334;DHT22;1679;50.392;8.008;2022-09-01T04:16:59;13.10;99.90
3334;DHT22;1679;50.392;8.008;2022-09-01T04:19:43;13.10;99.90
3334;DHT22;1679;50.392;8.008;2022-09-01T04:22:09;13.20;99.90
3334;DHT22;1679;50.392;8.008;2022-09-01T04:24:38;13.10;99.90
3334;DHT22;1679;50.392;8.008;2022-09-01T04:27:07;13.10;99.90
3334;DHT22;1679;50.392;8.008;2022-09-01T04:29:34;13.10;99.90
3334;DHT22;1679;50.392;8.008;2022-09-01T04:32:04;13.20;99.90
3334;DHT22;1679;50.392;8.008;2022-09-01T04:34:32;13.20;99.90
3334;DHT22;1679;50.392;8.008;2022-09-01T04:37:05;13.10;99.90
3334;DHT22;1679;50.392;8.008;2022-09-01T04:39:31;13.10;99.90
3334;DHT22;1679;50.392;8.008;2022-09-01T04:41:56;13.10;99.90
3334;DHT22;1679;50.392;8.008;2022-09-01T04:44:22;13.00;99.90
3334;DHT22;1679;50.392;8.008;2022-09-01T04:46:50;13.00;99.90
3334;DHT22;1679;50.392;8.008;2022-09-01T04:49:17;12.90;99.90
3334;DHT22;1679;50.392;8.008;2022-09-01T04:51:48;12.90;99.90
3334;DHT22;1679;50.392;8.008;2022-09-01T04:54:14;12.90;99.90
3334;DHT22;1679;50.392;8.008;2022-09-01T04:56:42;12.90;99.90
3334;DHT22;1679;50.392;8.008;2022-09-01T04:59:09;12.90;99.90
3334;DHT22;1679;50.392;8.008;2022-09-01T05:01:37;13.00;99.90
3334;DHT22;1679;50.392;8.008;2022-09-01T05:04:11;13.00;99.90
3334;DHT22;1679;50.392;8.008;2022-09-01T05:06:45;13.00;99.90
3334;DHT22;1679;50.392;8.008;2022-09-01T05:09:12;13.10;99.90
3334;DHT22;1679;50.392;8.008;2022-09-01T05:11:39;13.20;99.90
3334;DHT22;1679;50.392;8.008;2022-09-01T05:14:06;13.20;99.90
3334;DHT22;1679;50.392;8.008;2022-09-01T05:16:33;13.20;99.90
3334;DHT22;1679;50.392;8.008;2022-09-01T05:18:59;13.10;99.90
3334;DHT22;1679;50.392;8.008;2022-09-01T05:21:26;13.20;99.90
3334;DHT22;1679;50.392;8.008;2022-09-01T05:23:55;13.10;99.90
3334;DHT22;1679;50.392;8.008;2022-09-01T05:26:25;13.10;99.90
3334;DHT22;1679;50.392;8.008;2022-09-01T05:28:55;13.10;99.90
3334;DHT22;1679;50.392;8.008;2022-09-01T05:31:22;13.10;99.90
3334;DHT22;1679;50.392;8.008;2022-09-01T05:33:49;13.30;99.90
3334;DHT22;1679;50.392;8.008;2022-09-01T05:36:17;13.40;99.90
3334;DHT22;1679;50.392;8.008;2022-09-01T05:38:45;13.50;99.90
3334;DHT22;1679;50.392;8.008;2022-09-01T05:41:13;13.60;99.90
3334;DHT22;1679;50.392;8.008;2022-09-01T05:43:43;13.70;99.90
3334;DHT22;1679;50.392;8.008;2022-09-01T05:46:15;13.80;99.90
3334;DHT22;1679;50.392;8.008;2022-09-01T05:48:44;13.90;99.90
3334;DHT22;1679;50.392;8.008;2022-09-01T05:51:12;14.00;99.90
3334;DHT22;1679;50.392;8.008;2022-09-01T05:53:45;14.10;99.90
3334;DHT22;1679;50.392;8.008;2022-09-01T05:56:11;14.20;99.90
3334;DHT22;1679;50.392;8.008;2022-09-01T05:58:38;14.20;99.90
3334;DHT22;1679;50.392;8.008;2022-09-01T06:01:05;14.30;99.90
3334;DHT22;1679;50.392;8.008;2022-09-01T06:03:31;14.40;99.90
3334;DHT22;1679;50.392;8.008;2022-09-01T06:06:02;14.50;99.90
3334;DHT22;1679;50.392;8.008;2022-09-01T06:08:32;14.60;99.90
3334;DHT22;1679;50.392;8.008;2022-09-01T06:10:57;14.70;99.90
3334;DHT22;1679;50.392;8.008;2022-09-01T06:13:23;14.80;99.90
3334;DHT22;1679;50.392;8.008;2022-09-01T06:15:49;14.80;99.90
3334;DHT22;1679;50.392;8.008;2022-09-01T06:18:15;14.80;99.90
3334;DHT22;1679;50.392;8.008;2022-09-01T06:20:46;14.90;99.90
3334;DHT22;1679;50.392;8.008;2022-09-01T06:23:12;15.00;99.90
3334;DHT22;1679;50.392;8.008;2022-09-01T06:25:40;15.10;99.90
3334;DHT22;1679;50.392;8.008;2022-09-01T06:28:07;15.20;99.90
3334;DHT22;1679;50.392;8.008;2022-09-01T06:30:36;15.30;99.90
3334;DHT22;1679;50.392;8.008;2022-09-01T06:33:03;15.40;99.90
3334;DHT22;1679;50.392;8.008;2022-09-01T06:35:34;15.60;99.90
3334;DHT22;1679;50.392;8.008;2022-09-01T06:38:01;15.70;99.90
3334;DHT22;1679;50.392;8.008;2022-09-01T06:40:27;15.80;99.90
3334;DHT22;1679;50.392;8.008;2022-09-01T06:42:53;15.90;99.90
3334;DHT22;1679;50.392;8.008;2022-09-01T06:45:21;16.00;99.90
3334;DHT22;1679;50.392;8.008;2022-09-01T06:47:48;16.10;99.90
3334;DHT22;1679;50.392;8.008;2022-09-01T06:50:20;16.30;99.90
3334;DHT22;1679;50.392;8.008;2022-09-01T06:52:47;16.40;99.90
3334;DHT22;1679;50.392;8.008;2022-09-01T06:55:15;16.40;99.90
3334;DHT22;1679;50.392;8.008;2022-09-01T06:57:42;16.40;99.90
3334;DHT22;1679;50.392;8.008;2022-09-01T07:00:13;16.40;99.90
3334;DHT22;1679;50.392;8.008;2022-09-01T07:02:44;16.50;99.90
3334;DHT22;1679;50.392;8.008;2022-09-01T07:05:10;16.60;99.90
3334;DHT22;1679;50.392;8.008;2022-09-01T07:07:35;16.60;99.90
3334;DHT22;1679;50.392;8.008;2022-09-01T07:10:04;16.60;99.90
3334;DHT22;1679;50.392;8.008;2022-09-01T07:12:31;16.50;99.90
3334;DHT22;1679;50.392;8.008;2022-09-01T07:14:57;16.60;99.90
3334;DHT22;1679;50.392;8.008;2022-09-01T07:17:24;16.70;99.90
3334;DHT22;1679;50.392;8.008;2022-09-01T07:19:50;16.90;99.90
3334;DHT22;1679;50.392;8.008;2022-09-01T07:22:16;17.00;99.90
3334;DHT22;1679;50.392;8.008;2022-09-01T07:24:43;17.10;99.90
3334;DHT22;1679;50.392;8.008;2022-09-01T07:27:10;17.20;99.90
3334;DHT22;1679;50.392;8.008;2022-09-01T07:29:37;17.30;99.90
3334;DHT22;1679;50.392;8.008;2022-09-01T07:32:03;17.30;99.90
3334;DHT22;1679;50.392;8.008;2022-09-01T07:34:30;17.40;99.90
3334;DHT22;1679;50.392;8.008;2022-09-01T07:36:56;17.30;99.90
3334;DHT22;1679;50.392;8.008;2022-09-01T07:39:24;17.10;99.90
3334;DHT22;1679;50.392;8.008;2022-09-01T07:41:49;17.00;99.90
3334;DHT22;1679;50.392;8.008;2022-09-01T07:44:15;17.10;99.90
3334;DHT22;1679;50.392;8.008;2022-09-01T07:46:41;17.40;99.90
3334;DHT22;1679;50.392;8.008;2022-09-01T07:49:07;17.60;99.90
3334;DHT22;1679;50.392;8.008;2022-09-01T07:51:33;17.70;99.90
3334;DHT22;1679;50.392;8.008;2022-09-01T07:54:00;17.90;99.90
3334;DHT22;1679;50.392;8.008;2022-09-01T07:56:27;18.20;99.90
3334;DHT22;1679;50.392;8.008;2022-09-01T07:58:55;18.70;99.90
3334;DHT22;1679;50.392;8.008;2022-09-01T08:01:24;19.00;99.90
3334;DHT22;1679;50.392;8.008;2022-09-01T08:03:58;19.00;99.90
3334;DHT22;1679;50.392;8.008;2022-09-01T08:06:25;18.70;99.90
3334;DHT22;1679;50.392;8.008;2022-09-01T08:08:53;18.40;99.90
3334;DHT22;1679;50.392;8.008;2022-09-01T08:11:25;18.10;99.90
3334;DHT22;1679;50.392;8.008;2022-09-01T08:13:56;18.10;99.90
3334;DHT22;1679;50.392;8.008;2022-09-01T08:16:27;18.10;99.90
3334;DHT22;1679;50.392;8.008;2022-09-01T08:18:53;18.10;99.90
3334;DHT22;1679;50.392;8.008;2022-09-01T08:21:19;18.10;99.90
3334;DHT22;1679;50.392;8.008;2022-09-01T08:23:46;18.20;99.90
3334;DHT22;1679;50.392;8.008;2022-09-01T08:26:15;18.30;99.90
3334;DHT22;1679;50.392;8.008;2022-09-01T08:28:41;18.30;99.90
3334;DHT22;1679;50.392;8.008;2022-09-01T08:31:11;18.20;99.90
3334;DHT22;1679;50.392;8.008;2022-09-01T08:33:38;18.10;99.90
3334;DHT22;1679;50.392;8.008;2022-09-01T08:36:07;18.00;99.90
3334;DHT22;1679;50.392;8.008;2022-09-01T08:38:33;17.90;99.90
3334;DHT22;1679;50.392;8.008;2022-09-01T08:41:00;17.90;99.90
3334;DHT22;1679;50.392;8.008;2022-09-01T08:46:23;18.30;99.90
3334;DHT22;1679;50.392;8.008;2022-09-01T08:48:52;18.60;99.90
3334;DHT22;1679;50.392;8.008;2022-09-01T08:51:34;18.70;99.90
3334;DHT22;1679;50.392;8.008;2022-09-01T08:54:36;19.20;99.90
3334;DHT22;1679;50.392;8.008;2022-09-01T08:57:23;20.10;99.90
3334;DHT22;1679;50.392;8.008;2022-09-01T08:59:52;21.10;99.90
3334;DHT22;1679;50.392;8.008;2022-09-01T09:05:46;21.60;99.90
3334;DHT22;1679;50.392;8.008;2022-09-01T09:16:53;21.50;99.90
3334;DHT22;1679;50.392;8.008;2022-09-01T09:19:39;21.60;99.90
3334;DHT22;1679;50.392;8.008;2022-09-01T09:22:10;21.20;99.90
3334;DHT22;1679;50.392;8.008;2022-09-01T09:30:00;20.70;99.90
3334;DHT22;1679;50.392;8.008;2022-09-01T09:32:54;20.70;99.90
3334;DHT22;1679;50.392;8.008;2022-09-01T09:35:34;20.90;99.90
3334;DHT22;1679;50.392;8.008;2022-09-01T09:43:27;22.30;99.90
3334;DHT22;1679;50.392;8.008;2022-09-01T09:51:37;22.80;99.90
3334;DHT22;1679;50.392;8.008;2022-09-01T09:54:12;22.40;99.90
3334;DHT22;1679;50.392;8.008;2022-09-01T09:56:39;22.30;99.90
3334;DHT22;1679;50.392;8.008;2022-09-01T09:59:18;22.30;99.90
3334;DHT22;1679;50.392;8.008;2022-09-01T10:01:45;22.50;99.90
3334;DHT22;1679;50.392;8.008;2022-09-01T10:04:32;22.10;99.90
3334;DHT22;1679;50.392;8.008;2022-09-01T10:06:58;21.90;99.90
3334;DHT22;1679;50.392;8.008;2022-09-01T10:11:58;21.90;99.90
3334;DHT22;1679;50.392;8.008;2022-09-01T10:14:27;21.70;99.90
3334;DHT22;1679;50.392;8.008;2022-09-01T10:16:59;21.90;99.90
3334;DHT22;1679;50.392;8.008;2022-09-01T10:19:27;22.30;99.90
3334;DHT22;1679;50.392;8.008;2022-09-01T10:21:55;22.70;99.90
3334;DHT22;1679;50.392;8.008;2022-09-01T10:24:29;23.00;99.90
3334;DHT22;1679;50.392;8.008;2022-09-01T10:26:59;22.80;99.90
3334;DHT22;1679;50.392;8.008;2022-09-01T10:29:27;22.90;99.90
3334;DHT22;1679;50.392;8.008;2022-09-01T10:31:55;23.20;99.90
3334;DHT22;1679;50.392;8.008;2022-09-01T10:34:21;23.30;99.90
3334;DHT22;1679;50.392;8.008;2022-09-01T10:36:47;23.60;99.90
3334;DHT22;1679;50.392;8.008;2022-09-01T10:39:16;23.50;99.90
3334;DHT22;1679;50.392;8.008;2022-09-01T10:44:19;23.00;99.90
3334;DHT22;1679;50.392;8.008;2022-09-01T10:46:46;23.10;99.90
3334;DHT22;1679;50.392;8.008;2022-09-01T10:49:21;23.30;99.90
3334;DHT22;1679;50.392;8.008;2022-09-01T10:51:47;23.30;99.90
3334;DHT22;1679;50.392;8.008;2022-09-01T10:54:54;22.90;99.90
3334;DHT22;1679;50.392;8.008;2022-09-01T10:57:39;22.80;99.90
3334;DHT22;1679;50.392;8.008;2022-09-01T11:11:06;23.70;99.90
3334;DHT22;1679;50.392;8.008;2022-09-01T11:13:49;23.70;99.90
3334;DHT22;1679;50.392;8.008;2022-09-01T11:16:29;23.50;99.90
3334;DHT22;1679;50.392;8.008;2022-09-01T11:19:14;23.70;99.90
3334;DHT22;1679;50.392;8.008;2022-09-01T11:21:40;23.80;99.90
3334;DHT22;1679;50.392;8.008;2022-09-01T11:27:03;24.00;99.90
3334;DHT22;1679;50.392;8.008;2022-09-01T11:29:52;24.20;99.90
3334;DHT22;1679;50.392;8.008;2022-09-01T11:32:21;24.10;99.90
3334;DHT22;1679;50.392;8.008;2022-09-01T11:34:50;24.00;99.90
3334;DHT22;1679;50.392;8.008;2022-09-01T11:37:21;23.90;99.90
3334;DHT22;1679;50.392;8.008;2022-09-01T11:39:53;23.90;99.90
3334;DHT22;1679;50.392;8.008;2022-09-01T11:42:41;24.10;99.90
3334;DHT22;1679;50.392;8.008;2022-09-01T11:45:23;24.20;99.90
3334;DHT22;1679;50.392;8.008;2022-09-01T11:48:07;24.00;99.90
3334;DHT22;1679;50.392;8.008;2022-09-01T11:50:36;24.20;99.90
3334;DHT22;1679;50.392;8.008;2022-09-01T11:53:05;24.30;99.90
3334;DHT22;1679;50.392;8.008;2022-09-01T11:55:46;24.50;99.90
3334;DHT22;1679;50.392;8.008;2022-09-01T12:01:21;24.50;98.90
3334;DHT22;1679;50.392;8.008;2022-09-01T12:03:49;24.50;98.70
3334;DHT22;1679;50.392;8.008;2022-09-01T12:06:26;24.20;99.10
3334;DHT22;1679;50.392;8.008;2022-09-01T12:08:59;24.20;98.80
3334;DHT22;1679;50.392;8.008;2022-09-01T12:11:31;24.30;98.50
3334;DHT22;1679;50.392;8.008;2022-09-01T12:14:24;24.30;98.80
3334;DHT22;1679;50.392;8.008;2022-09-01T12:17:02;24.30;98.50
3334;DHT22;1679;50.392;8.008;2022-09-01T12:19:31;24.30;98.70
3334;DHT22;1679;50.392;8.008;2022-09-01T12:22:19;24.30;97.70
3334;DHT22;1679;50.392;8.008;2022-09-01T12:24:52;24.50;98.20
3334;DHT22;1679;50.392;8.008;2022-09-01T12:27:20;24.70;97.00
3334;DHT22;1679;50.392;8.008;2022-09-01T12:29:49;24.90;97.10
3334;DHT22;1679;50.392;8.008;2022-09-01T12:32:15;24.90;95.90
3334;DHT22;1679;50.392;8.008;2022-09-01T12:34:57;24.90;95.60
3334;DHT22;1679;50.392;8.008;2022-09-01T12:37:26;24.80;96.20
3334;DHT22;1679;50.392;8.008;2022-09-01T12:40:01;24.90;96.20
3334;DHT22;1679;50.392;8.008;2022-09-01T12:42:31;24.80;95.70
3334;DHT22;1679;50.392;8.008;2022-09-01T12:45:09;24.50;96.10
3334;DHT22;1679;50.392;8.008;2022-09-01T12:50:02;24.30;97.10
3334;DHT22;1679;50.392;8.008;2022-09-01T12:52:33;24.30;96.70
3334;DHT22;1679;50.392;8.008;2022-09-01T12:57:37;24.50;96.00
3334;DHT22;1679;50.392;8.008;2022-09-01T13:00:12;24.70;95.70
3334;DHT22;1679;50.392;8.008;2022-09-01T13:02:42;24.90;95.20
3334;DHT22;1679;50.392;8.008;2022-09-01T13:05:28;25.10;95.60
3334;DHT22;1679;50.392;8.008;2022-09-01T13:07:56;25.10;95.10
3334;DHT22;1679;50.392;8.008;2022-09-01T13:10:24;25.00;95.10
3334;DHT22;1679;50.392;8.008;2022-09-01T13:12:52;25.10;94.90
3334;DHT22;1679;50.392;8.008;2022-09-01T13:15:18;25.10;94.40
3334;DHT22;1679;50.392;8.008;2022-09-01T13:17:44;25.00;94.00
3334;DHT22;1679;50.392;8.008;2022-09-01T13:20:11;24.90;94.30
3334;DHT22;1679;50.392;8.008;2022-09-01T13:22:38;25.10;94.50
3334;DHT22;1679;50.392;8.008;2022-09-01T13:25:06;25.30;94.50
3334;DHT22;1679;50.392;8.008;2022-09-01T13:27:33;25.50;94.10
3334;DHT22;1679;50.392;8.008;2022-09-01T13:29:58;25.50;94.20
3334;DHT22;1679;50.392;8.008;2022-09-01T13:32:24;25.60;93.70
3334;DHT22;1679;50.392;8.008;2022-09-01T13:34:50;25.50;93.20
3334;DHT22;1679;50.392;8.008;2022-09-01T13:37:18;25.40;94.00
3334;DHT22;1679;50.392;8.008;2022-09-01T13:39:44;25.20;93.40
3334;DHT22;1679;50.392;8.008;2022-09-01T13:42:12;24.90;93.70
3334;DHT22;1679;50.392;8.008;2022-09-01T13:44:38;24.90;93.60
3334;DHT22;1679;50.392;8.008;2022-09-01T13:47:04;25.00;92.90
3334;DHT22;1679;50.392;8.008;2022-09-01T13:49:30;25.10;93.40
3334;DHT22;1679;50.392;8.008;2022-09-01T13:51:55;25.30;93.10
3334;DHT22;1679;50.392;8.008;2022-09-01T13:54:21;25.50;93.00
3334;DHT22;1679;50.392;8.008;2022-09-01T13:56:46;25.50;92.30
3334;DHT22;1679;50.392;8.008;2022-09-01T13:59:13;25.40;93.90
3334;DHT22;1679;50.392;8.008;2022-09-01T14:01:39;25.40;93.40
3334;DHT22;1679;50.392;8.008;2022-09-01T14:04:06;25.50;93.80
3334;DHT22;1679;50.392;8.008;2022-09-01T14:06:32;25.40;94.00
3334;DHT22;1679;50.392;8.008;2022-09-01T14:08:58;25.10;94.40
3334;DHT22;1679;50.392;8.008;2022-09-01T14:11:24;25.00;94.70
3334;DHT22;1679;50.392;8.008;2022-09-01T14:13:51;25.00;94.30
3334;DHT22;1679;50.392;8.008;2022-09-01T14:16:17;24.80;94.20
3334;DHT22;1679;50.392;8.008;2022-09-01T14:18:43;24.60;94.00
3334;DHT22;1679;50.392;8.008;2022-09-01T14:21:15;24.30;94.90
3334;DHT22;1679;50.392;8.008;2022-09-01T14:23:42;24.50;95.40
3334;DHT22;1679;50.392;8.008;2022-09-01T14:26:09;24.80;95.40
3334;DHT22;1679;50.392;8.008;2022-09-01T14:28:36;25.00;94.80
3334;DHT22;1679;50.392;8.008;2022-09-01T14:31:07;24.90;94.40
3334;DHT22;1679;50.392;8.008;2022-09-01T14:33:34;25.00;94.20
3334;DHT22;1679;50.392;8.008;2022-09-01T14:35:59;25.00;94.10
3334;DHT22;1679;50.392;8.008;2022-09-01T14:38:25;25.00;94.10
3334;DHT22;1679;50.392;8.008;2022-09-01T14:40:50;25.10;94.00
3334;DHT22;1679;50.392;8.008;2022-09-01T14:43:17;25.00;93.90
3334;DHT22;1679;50.392;8.008;2022-09-01T14:45:43;24.90;94.30
3334;DHT22;1679;50.392;8.008;2022-09-01T14:48:12;24.90;93.40
3334;DHT22;1679;50.392;8.008;2022-09-01T14:50:40;24.40;94.20
3334;DHT22;1679;50.392;8.008;2022-09-01T14:53:07;24.30;94.50
3334;DHT22;1679;50.392;8.008;2022-09-01T14:55:32;24.30;95.20
3334;DHT22;1679;50.392;8.008;2022-09-01T14:57:59;24.30;94.80
3334;DHT22;1679;50.392;8.008;2022-09-01T15:00:26;24.40;93.90
3334;DHT22;1679;50.392;8.008;2022-09-01T15:02:54;24.40;94.10
3334;DHT22;1679;50.392;8.008;2022-09-01T15:05:22;24.30;94.20
3334;DHT22;1679;50.392;8.008;2022-09-01T15:07:48;24.20;93.80
3334;DHT22;1679;50.392;8.008;2022-09-01T15:10:17;24.10;94.30
3334;DHT22;1679;50.392;8.008;2022-09-01T15:12:42;24.10;94.50
3334;DHT22;1679;50.392;8.008;2022-09-01T15:15:09;24.00;93.70
3334;DHT22;1679;50.392;8.008;2022-09-01T15:17:35;23.90;94.50
3334;DHT22;1679;50.392;8.008;2022-09-01T15:20:02;23.90;94.30
3334;DHT22;1679;50.392;8.008;2022-09-01T15:22:47;23.80;94.70
3334;DHT22;1679;50.392;8.008;2022-09-01T15:25:14;23.80;94.00
3334;DHT22;1679;50.392;8.008;2022-09-01T15:27:40;23.80;94.20
3334;DHT22;1679;50.392;8.008;2022-09-01T15:30:06;23.80;94.70
3334;DHT22;1679;50.392;8.008;2022-09-01T15:32:39;23.80;94.10
3334;DHT22;1679;50.392;8.008;2022-09-01T15:35:07;23.80;94.00
3334;DHT22;1679;50.392;8.008;2022-09-01T15:37:33;23.80;94.40
3334;DHT22;1679;50.392;8.008;2022-09-01T15:39:59;23.80;94.60
3334;DHT22;1679;50.392;8.008;2022-09-01T15:42:25;23.80;93.30
3334;DHT22;1679;50.392;8.008;2022-09-01T15:44:51;23.80;93.10
3334;DHT22;1679;50.392;8.008;2022-09-01T15:47:17;23.70;92.50
3334;DHT22;1679;50.392;8.008;2022-09-01T15:49:42;23.80;93.70
3334;DHT22;1679;50.392;8.008;2022-09-01T15:52:09;23.90;93.30
3334;DHT22;1679;50.392;8.008;2022-09-01T15:54:37;24.10;93.00
3334;DHT22;1679;50.392;8.008;2022-09-01T15:57:04;24.20;92.30
3334;DHT22;1679;50.392;8.008;2022-09-01T15:59:30;24.20;92.40
3334;DHT22;1679;50.392;8.008;2022-09-01T16:01:56;24.20;92.90
3334;DHT22;1679;50.392;8.008;2022-09-01T16:04:22;24.30;92.80
3334;DHT22;1679;50.392;8.008;2022-09-01T16:06:49;24.30;92.50
3334;DHT22;1679;50.392;8.008;2022-09-01T16:09:16;24.30;92.10
3334;DHT22;1679;50.392;8.008;2022-09-01T16:11:43;24.20;92.50
3334;DHT22;1679;50.392;8.008;2022-09-01T16:14:10;24.10;92.80
3334;DHT22;1679;50.392;8.008;2022-09-01T16:24:51;23.70;92.90
3334;DHT22;1679;50.392;8.008;2022-09-01T16:27:22;23.70;93.00
3334;DHT22;1679;50.392;8.008;2022-09-01T16:29:57;23.80;92.60
3334;DHT22;1679;50.392;8.008;2022-09-01T16:32:23;23.80;92.60
3334;DHT22;1679;50.392;8.008;2022-09-01T16:34:52;23.90;92.30
3334;DHT22;1679;50.392;8.008;2022-09-01T16:40:15;24.00;92.90
3334;DHT22;1679;50.392;8.008;2022-09-01T16:43:08;24.00;92.90
3334;DHT22;1679;50.392;8.008;2022-09-01T16:48:52;23.90;93.10
3334;DHT22;1679;50.392;8.008;2022-09-01T16:54:25;23.90;92.60
3334;DHT22;1679;50.392;8.008;2022-09-01T16:57:23;23.90;92.80
3334;DHT22;1679;50.392;8.008;2022-09-01T16:59:55;23.80;92.40
3334;DHT22;1679;50.392;8.008;2022-09-01T17:05:02;23.80;92.60
3334;DHT22;1679;50.392;8.008;2022-09-01T17:07:50;23.70;93.00
3334;DHT22;1679;50.392;8.008;2022-09-01T17:10:39;23.60;93.00
3334;DHT22;1679;50.392;8.008;2022-09-01T17:15:43;23.50;93.50
3334;DHT22;1679;50.392;8.008;2022-09-01T17:18:32;23.40;93.60
3334;DHT22;1679;50.392;8.008;2022-09-01T17:21:21;23.40;93.30
3334;DHT22;1679;50.392;8.008;2022-09-01T17:23:54;23.30;93.10
3334;DHT22;1679;50.392;8.008;2022-09-01T17:26:27;23.30;93.20
3334;DHT22;1679;50.392;8.008;2022-09-01T17:29:04;23.20;93.00
3334;DHT22;1679;50.392;8.008;2022-09-01T17:34:34;23.00;93.70
3334;DHT22;1679;50.392;8.008;2022-09-01T17:37:38;23.00;93.30
3334;DHT22;1679;50.392;8.008;2022-09-01T17:43:09;22.70;93.10
3334;DHT22;1679;50.392;8.008;2022-09-01T17:45:47;22.60;93.80
3334;DHT22;1679;50.392;8.008;2022-09-01T17:48:39;22.60;93.40
3334;DHT22;1679;50.392;8.008;2022-09-01T17:54:28;22.40;93.60